Time;durP1;ratioP1;P1;durP2;ratioP2;P2;SDS_P1;SDS_P2;PMS_P1;PMS_P2;Temp;Humidity;BMP_temperature;BMP_pressure;BME280_temperature;BME280_humidity;BME280_pressure;Samples;Min_cycle;Max_cycle;Signal;HPM_P1;HPM_P2
2021/08/08 00:00:01;;;;;;;1.8;1.05;;;;;;;14.82;100;94762.81;;;;
2021/08/08 00:01:03;;;;;;;1.8;1.05;;;;;;;14.82;100;94762.81;;;;
2021/08/08 00:02:03;;;;;;;1.8;1.05;;;;;;;14.82;100;94762.81;;;;
2021/08/08 00:03:04;;;;;;;3;1.2;;;;;;;14.81;100;94769.73;;;;
2021/08/08 00:04:04;;;;;;;3;1.2;;;;;;;14.81;100;94769.73;;;;
2021/08/08 00:05:05;;;;;;;3;1.2;;;;;;;14.81;100;94769.73;;;;
2021/08/08 00:06:08;;;;;;;3;1.2;;;;;;;14.81;100;94769.73;;;;
2021/08/08 00:07:09;;;;;;;3;1.2;;;;;;;14.81;100;94769.73;;;;
2021/08/08 00:08:09;;;;;;;3;1.2;;;;;;;14.81;100;94769.73;;;;
2021/08/08 00:09:10;;;;;;;3;1.2;;;;;;;14.81;100;94769.73;;;;
2021/08/08 00:10:11;;;;;;;3;1.2;;;;;;;14.81;100;94769.73;;;;
2021/08/08 00:11:13;;;;;;;3;1.2;;;;;;;14.81;100;94769.73;;;;
2021/08/08 00:12:14;;;;;;;3;1.2;;;;;;;14.81;100;94769.73;;;;
2021/08/08 00:13:14;;;;;;;3;1.2;;;;;;;14.81;100;94769.73;;;;
2021/08/08 00:14:15;;;;;;;1.1;1;;;;;;;14.81;100;94749.75;;;;
2021/08/08 00:15:16;;;;;;;1.1;1;;;;;;;14.81;100;94749.75;;;;
2021/08/08 00:16:16;;;;;;;1.1;1;;;;;;;14.81;100;94749.75;;;;
2021/08/08 00:17:17;;;;;;;1.1;1;;;;;;;14.81;100;94749.75;;;;
2021/08/08 00:18:17;;;;;;;1.1;1;;;;;;;14.81;100;94749.75;;;;
2021/08/08 00:19:18;;;;;;;1.1;1;;;;;;;14.81;100;94749.75;;;;
2021/08/08 00:20:19;;;;;;;1.1;1;;;;;;;14.81;100;94749.75;;;;
2021/08/08 00:21:19;;;;;;;1.1;1;;;;;;;14.81;100;94749.75;;;;
2021/08/08 00:22:20;;;;;;;1.1;1;;;;;;;14.81;100;94749.75;;;;
2021/08/08 00:23:21;;;;;;;1.1;1;;;;;;;14.81;100;94749.75;;;;
2021/08/08 00:24:21;;;;;;;2.35;1.25;;;;;;;14.89;100;94754.64;;;;
2021/08/08 00:25:22;;;;;;;2.35;1.25;;;;;;;14.89;100;94754.64;;;;
2021/08/08 00:26:23;;;;;;;2.35;1.25;;;;;;;14.89;100;94754.64;;;;
2021/08/08 00:27:23;;;;;;;2.35;1.25;;;;;;;14.89;100;94754.64;;;;
2021/08/08 00:28:23;;;;;;;2.35;1.25;;;;;;;14.89;100;94754.64;;;;
2021/08/08 00:29:24;;;;;;;2.35;1.25;;;;;;;14.89;100;94754.64;;;;
2021/08/08 00:30:25;;;;;;;2.35;1.25;;;;;;;14.89;100;94754.64;;;;
2021/08/08 00:31:26;;;;;;;2.35;1.25;;;;;;;14.89;100;94754.64;;;;
2021/08/08 00:32:26;;;;;;;2.35;1.25;;;;;;;14.89;100;94754.64;;;;
2021/08/08 00:33:27;;;;;;;2.35;1.25;;;;;;;14.89;100;94754.64;;;;
2021/08/08 00:34:27;;;;;;;2.35;1.25;;;;;;;14.89;100;94754.64;;;;
2021/08/08 00:35:28;;;;;;;1.65;1.1;;;;;;;14.96;100;94740.34;;;;
2021/08/08 00:36:29;;;;;;;1.65;1.1;;;;;;;14.96;100;94740.34;;;;
2021/08/08 00:37:29;;;;;;;1.65;1.1;;;;;;;14.96;100;94740.34;;;;
2021/08/08 00:38:30;;;;;;;1.65;1.1;;;;;;;14.96;100;94740.34;;;;
2021/08/08 00:39:31;;;;;;;1.65;1.1;;;;;;;14.96;100;94740.34;;;;
2021/08/08 00:40:32;;;;;;;1.65;1.1;;;;;;;14.96;100;94740.34;;;;
2021/08/08 00:41:32;;;;;;;1.65;1.1;;;;;;;14.96;100;94740.34;;;;
2021/08/08 00:42:33;;;;;;;1.65;1.1;;;;;;;14.96;100;94740.34;;;;
2021/08/08 00:43:33;;;;;;;1.65;1.1;;;;;;;14.96;100;94740.34;;;;
2021/08/08 00:44:34;;;;;;;1.65;1.1;;;;;;;14.96;100;94740.34;;;;
2021/08/08 00:45:34;;;;;;;1.6;1.1;;;;;;;15;100;94727.29;;;;
2021/08/08 00:46:35;;;;;;;1.6;1.1;;;;;;;15;100;94727.29;;;;
2021/08/08 00:47:36;;;;;;;1.6;1.1;;;;;;;15;100;94727.29;;;;
2021/08/08 00:48:36;;;;;;;1.6;1.1;;;;;;;15;100;94727.29;;;;
2021/08/08 00:49:37;;;;;;;1.6;1.1;;;;;;;15;100;94727.29;;;;
2021/08/08 00:50:37;;;;;;;1.6;1.1;;;;;;;15;100;94727.29;;;;
2021/08/08 00:51:38;;;;;;;1.6;1.1;;;;;;;15;100;94727.29;;;;
2021/08/08 00:52:39;;;;;;;1.6;1.1;;;;;;;15;100;94727.29;;;;
2021/08/08 00:53:39;;;;;;;1.6;1.1;;;;;;;15;100;94727.29;;;;
2021/08/08 00:54:40;;;;;;;1.6;1.1;;;;;;;15;100;94727.29;;;;
2021/08/08 00:55:41;;;;;;;1.6;1.1;;;;;;;15;100;94727.29;;;;
2021/08/08 00:56:41;;;;;;;1.5;1;;;;;;;15.04;100;94725.21;;;;
2021/08/08 00:57:42;;;;;;;1.5;1;;;;;;;15.04;100;94725.21;;;;
2021/08/08 00:58:43;;;;;;;1.5;1;;;;;;;15.04;100;94725.21;;;;
2021/08/08 00:59:43;;;;;;;1.5;1;;;;;;;15.04;100;94725.21;;;;
2021/08/08 01:00:44;;;;;;;1.5;1;;;;;;;15.04;100;94725.21;;;;
2021/08/08 01:01:46;;;;;;;1.5;1;;;;;;;15.04;100;94725.21;;;;
2021/08/08 01:02:49;;;;;;;1.5;1;;;;;;;15.04;100;94725.21;;;;
2021/08/08 01:03:56;;;;;;;1.5;1;;;;;;;15.04;100;94725.21;;;;
2021/08/08 01:04:58;;;;;;;1.5;1;;;;;;;15.04;100;94725.21;;;;
2021/08/08 01:06:05;;;;;;;1.5;1;;;;;;;15.04;100;94725.21;;;;
2021/08/08 01:07:17;;;;;;;2.05;1;;;;;;;15.02;100;94765.08;;;;
2021/08/08 01:08:23;;;;;;;2.05;1;;;;;;;15.02;100;94765.08;;;;
2021/08/08 01:09:28;;;;;;;2.05;1;;;;;;;15.02;100;94765.08;;;;
2021/08/08 01:10:31;;;;;;;2.05;1;;;;;;;15.02;100;94765.08;;;;
2021/08/08 01:11:33;;;;;;;2.05;1;;;;;;;15.02;100;94765.08;;;;
2021/08/08 01:12:34;;;;;;;2.05;1;;;;;;;15.02;100;94765.08;;;;
2021/08/08 01:13:37;;;;;;;2.05;1;;;;;;;15.02;100;94765.08;;;;
2021/08/08 01:14:39;;;;;;;2.05;1;;;;;;;15.02;100;94765.08;;;;
2021/08/08 01:15:40;;;;;;;2.05;1;;;;;;;15.02;100;94765.08;;;;
2021/08/08 01:16:42;;;;;;;2.05;1;;;;;;;15.02;100;94765.08;;;;
2021/08/08 01:17:44;;;;;;;1.15;1.05;;;;;;;14.92;100;94782.22;;;;
2021/08/08 01:18:45;;;;;;;1.15;1.05;;;;;;;14.92;100;94782.22;;;;
2021/08/08 01:19:47;;;;;;;1.15;1.05;;;;;;;14.92;100;94782.22;;;;
2021/08/08 01:20:53;;;;;;;1.15;1.05;;;;;;;14.92;100;94782.22;;;;
2021/08/08 01:21:55;;;;;;;1.15;1.05;;;;;;;14.92;100;94782.22;;;;
2021/08/08 01:22:56;;;;;;;1.15;1.05;;;;;;;14.92;100;94782.22;;;;
2021/08/08 01:24:01;;;;;;;1.15;1.05;;;;;;;14.92;100;94782.22;;;;
2021/08/08 01:25:03;;;;;;;1.15;1.05;;;;;;;14.92;100;94782.22;;;;
2021/08/08 01:26:07;;;;;;;1.15;1.05;;;;;;;14.92;100;94782.22;;;;
2021/08/08 01:27:07;;;;;;;1.15;1.05;;;;;;;14.92;100;94782.22;;;;
2021/08/08 01:28:08;;;;;;;1.15;1.05;;;;;;;14.92;100;94782.22;;;;
2021/08/08 01:29:08;;;;;;;1.45;1;;;;;;;14.85;100;94770.81;;;;
2021/08/08 01:30:09;;;;;;;1.45;1;;;;;;;14.85;100;94770.81;;;;
2021/08/08 01:31:11;;;;;;;1.45;1;;;;;;;14.85;100;94770.81;;;;
2021/08/08 01:32:11;;;;;;;1.45;1;;;;;;;14.85;100;94770.81;;;;
2021/08/08 01:33:12;;;;;;;1.45;1;;;;;;;14.85;100;94770.81;;;;
2021/08/08 01:34:12;;;;;;;1.45;1;;;;;;;14.85;100;94770.81;;;;
2021/08/08 01:35:13;;;;;;;1.45;1;;;;;;;14.85;100;94770.81;;;;
2021/08/08 01:36:14;;;;;;;1.45;1;;;;;;;14.85;100;94770.81;;;;
2021/08/08 01:37:15;;;;;;;1.45;1;;;;;;;14.85;100;94770.81;;;;
2021/08/08 01:38:18;;;;;;;1.45;1;;;;;;;14.85;100;94770.81;;;;
2021/08/08 01:39:19;;;;;;;1.55;1.1;;;;;;;14.86;100;94764.28;;;;
2021/08/08 01:40:21;;;;;;;1.55;1.1;;;;;;;14.86;100;94764.28;;;;
2021/08/08 01:41:27;;;;;;;1.55;1.1;;;;;;;14.86;100;94764.28;;;;
2021/08/08 01:42:32;;;;;;;1.55;1.1;;;;;;;14.86;100;94764.28;;;;
2021/08/08 01:43:34;;;;;;;1.55;1.1;;;;;;;14.86;100;94764.28;;;;
2021/08/08 01:44:39;;;;;;;1.55;1.1;;;;;;;14.86;100;94764.28;;;;
2021/08/08 01:45:43;;;;;;;1.55;1.1;;;;;;;14.86;100;94764.28;;;;
2021/08/08 01:46:47;;;;;;;1.55;1.1;;;;;;;14.86;100;94764.28;;;;
2021/08/08 01:47:52;;;;;;;1.55;1.1;;;;;;;14.86;100;94764.28;;;;
2021/08/08 01:48:57;;;;;;;1.55;1.1;;;;;;;14.86;100;94764.28;;;;
2021/08/08 01:50:00;;;;;;;1.1;1;;;;;;;14.86;100;94752.45;;;;
2021/08/08 01:51:02;;;;;;;1.1;1;;;;;;;14.86;100;94752.45;;;;
2021/08/08 01:52:03;;;;;;;1.1;1;;;;;;;14.86;100;94752.45;;;;
2021/08/08 01:53:05;;;;;;;1.1;1;;;;;;;14.86;100;94752.45;;;;
2021/08/08 01:54:07;;;;;;;1.1;1;;;;;;;14.86;100;94752.45;;;;
2021/08/08 01:55:08;;;;;;;1.1;1;;;;;;;14.86;100;94752.45;;;;
2021/08/08 01:56:10;;;;;;;1.1;1;;;;;;;14.86;100;94752.45;;;;
2021/08/08 01:57:11;;;;;;;1.1;1;;;;;;;14.86;100;94752.45;;;;
2021/08/08 01:58:12;;;;;;;1.1;1;;;;;;;14.86;100;94752.45;;;;
2021/08/08 01:59:13;;;;;;;1.1;1;;;;;;;14.86;100;94752.45;;;;
2021/08/08 02:00:19;;;;;;;1.15;1;;;;;;;14.84;100;94767.42;;;;
2021/08/08 02:01:19;;;;;;;1.15;1;;;;;;;14.84;100;94767.42;;;;
2021/08/08 02:02:26;;;;;;;1.15;1;;;;;;;14.84;100;94767.42;;;;
2021/08/08 02:03:26;;;;;;;1.15;1;;;;;;;14.84;100;94767.42;;;;
2021/08/08 02:04:32;;;;;;;1.15;1;;;;;;;14.84;100;94767.42;;;;
2021/08/08 02:05:33;;;;;;;1.15;1;;;;;;;14.84;100;94767.42;;;;
2021/08/08 02:06:34;;;;;;;1.15;1;;;;;;;14.84;100;94767.42;;;;
2021/08/08 02:07:34;;;;;;;1.15;1;;;;;;;14.84;100;94767.42;;;;
2021/08/08 02:08:35;;;;;;;1.15;1;;;;;;;14.84;100;94767.42;;;;
2021/08/08 02:09:36;;;;;;;1.15;1;;;;;;;14.84;100;94767.42;;;;
2021/08/08 02:10:37;;;;;;;1.15;1;;;;;;;14.84;100;94767.42;;;;
2021/08/08 02:11:37;;;;;;;1.9;0.8;;;;;;;14.81;100;94789.7;;;;
2021/08/08 02:12:38;;;;;;;1.9;0.8;;;;;;;14.81;100;94789.7;;;;
2021/08/08 02:13:38;;;;;;;1.9;0.8;;;;;;;14.81;100;94789.7;;;;
2021/08/08 02:14:39;;;;;;;1.9;0.8;;;;;;;14.81;100;94789.7;;;;
2021/08/08 02:15:40;;;;;;;1.9;0.8;;;;;;;14.81;100;94789.7;;;;
2021/08/08 02:16:40;;;;;;;1.9;0.8;;;;;;;14.81;100;94789.7;;;;
2021/08/08 02:17:41;;;;;;;1.9;0.8;;;;;;;14.81;100;94789.7;;;;
2021/08/08 02:18:41;;;;;;;1.9;0.8;;;;;;;14.81;100;94789.7;;;;
2021/08/08 02:19:42;;;;;;;1.9;0.8;;;;;;;14.81;100;94789.7;;;;
2021/08/08 02:20:42;;;;;;;1.9;0.8;;;;;;;14.81;100;94789.7;;;;
2021/08/08 02:21:45;;;;;;;1.2;1.1;;;;;;;14.72;100;94811.19;;;;
2021/08/08 02:22:45;;;;;;;1.2;1.1;;;;;;;14.72;100;94811.19;;;;
2021/08/08 02:23:47;;;;;;;1.2;1.1;;;;;;;14.72;100;94811.19;;;;
2021/08/08 02:24:48;;;;;;;1.2;1.1;;;;;;;14.72;100;94811.19;;;;
2021/08/08 02:25:50;;;;;;;1.2;1.1;;;;;;;14.72;100;94811.19;;;;
2021/08/08 02:26:51;;;;;;;1.2;1.1;;;;;;;14.72;100;94811.19;;;;
2021/08/08 02:27:51;;;;;;;1.2;1.1;;;;;;;14.72;100;94811.19;;;;
2021/08/08 02:28:52;;;;;;;1.2;1.1;;;;;;;14.72;100;94811.19;;;;
2021/08/08 02:29:52;;;;;;;1.2;1.1;;;;;;;14.72;100;94811.19;;;;
2021/08/08 02:30:54;;;;;;;1.2;1.1;;;;;;;14.72;100;94811.19;;;;
2021/08/08 02:31:55;;;;;;;1.2;1.1;;;;;;;14.72;100;94811.19;;;;
2021/08/08 02:32:55;;;;;;;1.8;1;;;;;;;14.65;100;94822.88;;;;
2021/08/08 02:33:56;;;;;;;1.8;1;;;;;;;14.65;100;94822.88;;;;
2021/08/08 02:34:56;;;;;;;1.8;1;;;;;;;14.65;100;94822.88;;;;
2021/08/08 02:35:57;;;;;;;1.8;1;;;;;;;14.65;100;94822.88;;;;
2021/08/08 02:36:57;;;;;;;1.8;1;;;;;;;14.65;100;94822.88;;;;
2021/08/08 02:37:58;;;;;;;1.8;1;;;;;;;14.65;100;94822.88;;;;
2021/08/08 02:38:58;;;;;;;1.8;1;;;;;;;14.65;100;94822.88;;;;
2021/08/08 02:39:59;;;;;;;1.8;1;;;;;;;14.65;100;94822.88;;;;
2021/08/08 02:40:59;;;;;;;1.8;1;;;;;;;14.65;100;94822.88;;;;
2021/08/08 02:42:00;;;;;;;1.8;1;;;;;;;14.65;100;94822.88;;;;
2021/08/08 02:43:00;;;;;;;1.35;1.1;;;;;;;14.63;100;94814.71;;;;
2021/08/08 02:44:01;;;;;;;1.35;1.1;;;;;;;14.63;100;94814.71;;;;
2021/08/08 02:45:01;;;;;;;1.35;1.1;;;;;;;14.63;100;94814.71;;;;
2021/08/08 02:46:03;;;;;;;1.35;1.1;;;;;;;14.63;100;94814.71;;;;
2021/08/08 02:47:03;;;;;;;1.35;1.1;;;;;;;14.63;100;94814.71;;;;
2021/08/08 02:48:04;;;;;;;1.35;1.1;;;;;;;14.63;100;94814.71;;;;
2021/08/08 02:49:05;;;;;;;1.35;1.1;;;;;;;14.63;100;94814.71;;;;
2021/08/08 02:50:05;;;;;;;1.35;1.1;;;;;;;14.63;100;94814.71;;;;
2021/08/08 02:51:06;;;;;;;1.35;1.1;;;;;;;14.63;100;94814.71;;;;
2021/08/08 02:52:07;;;;;;;1.35;1.1;;;;;;;14.63;100;94814.71;;;;
2021/08/08 02:53:08;;;;;;;1.35;1.1;;;;;;;14.63;100;94814.71;;;;
2021/08/08 02:54:11;;;;;;;1.2;1.1;;;;;;;14.64;100;94823.56;;;;
2021/08/08 02:55:12;;;;;;;1.2;1.1;;;;;;;14.64;100;94823.56;;;;
2021/08/08 02:56:12;;;;;;;1.2;1.1;;;;;;;14.64;100;94823.56;;;;
2021/08/08 02:57:13;;;;;;;1.2;1.1;;;;;;;14.64;100;94823.56;;;;
2021/08/08 02:58:13;;;;;;;1.2;1.1;;;;;;;14.64;100;94823.56;;;;
2021/08/08 02:59:14;;;;;;;1.2;1.1;;;;;;;14.64;100;94823.56;;;;
2021/08/08 03:00:14;;;;;;;1.2;1.1;;;;;;;14.64;100;94823.56;;;;
2021/08/08 03:01:15;;;;;;;1.2;1.1;;;;;;;14.64;100;94823.56;;;;
2021/08/08 03:02:15;;;;;;;1.2;1.1;;;;;;;14.64;100;94823.56;;;;
2021/08/08 03:03:16;;;;;;;1.2;1.1;;;;;;;14.64;100;94823.56;;;;
2021/08/08 03:04:17;;;;;;;2.699999;1.2;;;;;;;14.64;100;94832.51;;;;
2021/08/08 03:05:17;;;;;;;2.699999;1.2;;;;;;;14.64;100;94832.51;;;;
2021/08/08 03:06:18;;;;;;;2.699999;1.2;;;;;;;14.64;100;94832.51;;;;
2021/08/08 03:07:18;;;;;;;2.699999;1.2;;;;;;;14.64;100;94832.51;;;;
2021/08/08 03:08:19;;;;;;;2.699999;1.2;;;;;;;14.64;100;94832.51;;;;
2021/08/08 03:09:19;;;;;;;2.699999;1.2;;;;;;;14.64;100;94832.51;;;;
2021/08/08 03:10:20;;;;;;;2.699999;1.2;;;;;;;14.64;100;94832.51;;;;
2021/08/08 03:11:20;;;;;;;2.699999;1.2;;;;;;;14.64;100;94832.51;;;;
2021/08/08 03:12:21;;;;;;;2.699999;1.2;;;;;;;14.64;100;94832.51;;;;
2021/08/08 03:13:21;;;;;;;2.699999;1.2;;;;;;;14.64;100;94832.51;;;;
2021/08/08 03:14:22;;;;;;;2.699999;1.2;;;;;;;14.64;100;94832.51;;;;
2021/08/08 03:15:22;;;;;;;2.05;1.05;;;;;;;14.64;100;94851.12;;;;
2021/08/08 03:16:23;;;;;;;2.05;1.05;;;;;;;14.64;100;94851.12;;;;
2021/08/08 03:17:23;;;;;;;2.05;1.05;;;;;;;14.64;100;94851.12;;;;
2021/08/08 03:18:24;;;;;;;2.05;1.05;;;;;;;14.64;100;94851.12;;;;
2021/08/08 03:19:25;;;;;;;2.05;1.05;;;;;;;14.64;100;94851.12;;;;
2021/08/08 03:20:25;;;;;;;2.05;1.05;;;;;;;14.64;100;94851.12;;;;
2021/08/08 03:21:26;;;;;;;2.05;1.05;;;;;;;14.64;100;94851.12;;;;
2021/08/08 03:22:26;;;;;;;2.05;1.05;;;;;;;14.64;100;94851.12;;;;
2021/08/08 03:23:27;;;;;;;2.05;1.05;;;;;;;14.64;100;94851.12;;;;
2021/08/08 03:24:27;;;;;;;2.05;1.05;;;;;;;14.64;100;94851.12;;;;
2021/08/08 03:25:28;;;;;;;2.05;1.05;;;;;;;14.64;100;94851.12;;;;
2021/08/08 03:26:28;;;;;;;1.65;1.1;;;;;;;14.63;100;94866.35;;;;
2021/08/08 03:27:31;;;;;;;1.65;1.1;;;;;;;14.63;100;94866.35;;;;
2021/08/08 03:28:32;;;;;;;1.65;1.1;;;;;;;14.63;100;94866.35;;;;
2021/08/08 03:29:32;;;;;;;1.65;1.1;;;;;;;14.63;100;94866.35;;;;
2021/08/08 03:30:33;;;;;;;1.65;1.1;;;;;;;14.63;100;94866.35;;;;
2021/08/08 03:31:33;;;;;;;1.65;1.1;;;;;;;14.63;100;94866.35;;;;
2021/08/08 03:32:34;;;;;;;1.65;1.1;;;;;;;14.63;100;94866.35;;;;
2021/08/08 03:33:34;;;;;;;1.65;1.1;;;;;;;14.63;100;94866.35;;;;
2021/08/08 03:34:35;;;;;;;1.65;1.1;;;;;;;14.63;100;94866.35;;;;
2021/08/08 03:35:35;;;;;;;1.65;1.1;;;;;;;14.63;100;94866.35;;;;
2021/08/08 03:36:36;;;;;;;1.7;1.2;;;;;;;14.63;100;94875.85;;;;
2021/08/08 03:37:36;;;;;;;1.7;1.2;;;;;;;14.63;100;94875.85;;;;
2021/08/08 03:38:37;;;;;;;1.7;1.2;;;;;;;14.63;100;94875.85;;;;
2021/08/08 03:39:38;;;;;;;1.7;1.2;;;;;;;14.63;100;94875.85;;;;
2021/08/08 03:40:38;;;;;;;1.7;1.2;;;;;;;14.63;100;94875.85;;;;
2021/08/08 03:41:39;;;;;;;1.7;1.2;;;;;;;14.63;100;94875.85;;;;
2021/08/08 03:42:39;;;;;;;1.7;1.2;;;;;;;14.63;100;94875.85;;;;
2021/08/08 03:43:39;;;;;;;1.7;1.2;;;;;;;14.63;100;94875.85;;;;
2021/08/08 03:44:40;;;;;;;1.7;1.2;;;;;;;14.63;100;94875.85;;;;
2021/08/08 03:45:41;;;;;;;1.7;1.2;;;;;;;14.63;100;94875.85;;;;
2021/08/08 03:46:41;;;;;;;1.7;1.2;;;;;;;14.63;100;94875.85;;;;
2021/08/08 03:47:41;;;;;;;1.1;1;;;;;;;14.62;100;94895.03;;;;
2021/08/08 03:48:42;;;;;;;1.1;1;;;;;;;14.62;100;94895.03;;;;
2021/08/08 03:49:43;;;;;;;1.1;1;;;;;;;14.62;100;94895.03;;;;
2021/08/08 03:50:43;;;;;;;1.1;1;;;;;;;14.62;100;94895.03;;;;
2021/08/08 03:51:43;;;;;;;1.1;1;;;;;;;14.62;100;94895.03;;;;
2021/08/08 03:52:44;;;;;;;1.1;1;;;;;;;14.62;100;94895.03;;;;
2021/08/08 03:53:45;;;;;;;1.1;1;;;;;;;14.62;100;94895.03;;;;
2021/08/08 03:54:45;;;;;;;1.1;1;;;;;;;14.62;100;94895.03;;;;
2021/08/08 03:55:46;;;;;;;1.1;1;;;;;;;14.62;100;94895.03;;;;
2021/08/08 03:56:46;;;;;;;1.1;1;;;;;;;14.62;100;94895.03;;;;
2021/08/08 03:57:47;;;;;;;2.3;1.4;;;;;;;14.62;100;94897.33;;;;
2021/08/08 03:58:47;;;;;;;2.3;1.4;;;;;;;14.62;100;94897.33;;;;
2021/08/08 03:59:48;;;;;;;2.3;1.4;;;;;;;14.62;100;94897.33;;;;
2021/08/08 04:00:48;;;;;;;2.3;1.4;;;;;;;14.62;100;94897.33;;;;
2021/08/08 04:01:49;;;;;;;2.3;1.4;;;;;;;14.62;100;94897.33;;;;
2021/08/08 04:02:49;;;;;;;2.3;1.4;;;;;;;14.62;100;94897.33;;;;
2021/08/08 04:03:50;;;;;;;2.3;1.4;;;;;;;14.62;100;94897.33;;;;
2021/08/08 04:04:50;;;;;;;2.3;1.4;;;;;;;14.62;100;94897.33;;;;
2021/08/08 04:05:51;;;;;;;2.3;1.4;;;;;;;14.62;100;94897.33;;;;
2021/08/08 04:06:51;;;;;;;2.3;1.4;;;;;;;14.62;100;94897.33;;;;
2021/08/08 04:07:52;;;;;;;2.3;1.4;;;;;;;14.62;100;94897.33;;;;
2021/08/08 04:08:52;;;;;;;1.55;1.15;;;;;;;14.63;100;94924.77;;;;
2021/08/08 04:09:53;;;;;;;1.55;1.15;;;;;;;14.63;100;94924.77;;;;
2021/08/08 04:10:53;;;;;;;1.55;1.15;;;;;;;14.63;100;94924.77;;;;
2021/08/08 04:11:54;;;;;;;1.55;1.15;;;;;;;14.63;100;94924.77;;;;
2021/08/08 04:12:54;;;;;;;1.55;1.15;;;;;;;14.63;100;94924.77;;;;
2021/08/08 04:13:55;;;;;;;1.55;1.15;;;;;;;14.63;100;94924.77;;;;
2021/08/08 04:14:55;;;;;;;1.55;1.15;;;;;;;14.63;100;94924.77;;;;
2021/08/08 04:15:56;;;;;;;1.55;1.15;;;;;;;14.63;100;94924.77;;;;
2021/08/08 04:16:56;;;;;;;1.55;1.15;;;;;;;14.63;100;94924.77;;;;
2021/08/08 04:17:57;;;;;;;1.55;1.15;;;;;;;14.63;100;94924.77;;;;
2021/08/08 04:18:57;;;;;;;1.35;1.1;;;;;;;14.65;100;94941.62;;;;
2021/08/08 04:19:58;;;;;;;1.35;1.1;;;;;;;14.65;100;94941.62;;;;
2021/08/08 04:20:58;;;;;;;1.35;1.1;;;;;;;14.65;100;94941.62;;;;
2021/08/08 04:21:59;;;;;;;1.35;1.1;;;;;;;14.65;100;94941.62;;;;
2021/08/08 04:23:02;;;;;;;1.35;1.1;;;;;;;14.65;100;94941.62;;;;
2021/08/08 04:24:03;;;;;;;1.35;1.1;;;;;;;14.65;100;94941.62;;;;
2021/08/08 04:25:04;;;;;;;1.35;1.1;;;;;;;14.65;100;94941.62;;;;
2021/08/08 04:26:05;;;;;;;1.35;1.1;;;;;;;14.65;100;94941.62;;;;
2021/08/08 04:27:06;;;;;;;1.35;1.1;;;;;;;14.65;100;94941.62;;;;
2021/08/08 04:28:06;;;;;;;1.35;1.1;;;;;;;14.65;100;94941.62;;;;
2021/08/08 04:29:07;;;;;;;1.35;1.1;;;;;;;14.65;100;94941.62;;;;
2021/08/08 04:30:07;;;;;;;1.3;1.2;;;;;;;14.68;100;94928.72;;;;
2021/08/08 04:31:09;;;;;;;1.3;1.2;;;;;;;14.68;100;94928.72;;;;
2021/08/08 04:32:10;;;;;;;1.3;1.2;;;;;;;14.68;100;94928.72;;;;
2021/08/08 04:33:11;;;;;;;1.3;1.2;;;;;;;14.68;100;94928.72;;;;
2021/08/08 04:34:11;;;;;;;1.3;1.2;;;;;;;14.68;100;94928.72;;;;
2021/08/08 04:35:12;;;;;;;1.3;1.2;;;;;;;14.68;100;94928.72;;;;
2021/08/08 04:36:12;;;;;;;1.3;1.2;;;;;;;14.68;100;94928.72;;;;
2021/08/08 04:37:13;;;;;;;1.3;1.2;;;;;;;14.68;100;94928.72;;;;
2021/08/08 04:38:14;;;;;;;1.3;1.2;;;;;;;14.68;100;94928.72;;;;
2021/08/08 04:39:14;;;;;;;1.3;1.2;;;;;;;14.68;100;94928.72;;;;
2021/08/08 04:40:15;;;;;;;2;1.2;;;;;;;14.74;100;94943.55;;;;
2021/08/08 04:41:15;;;;;;;2;1.2;;;;;;;14.74;100;94943.55;;;;
2021/08/08 04:42:16;;;;;;;2;1.2;;;;;;;14.74;100;94943.55;;;;
2021/08/08 04:43:16;;;;;;;2;1.2;;;;;;;14.74;100;94943.55;;;;
2021/08/08 04:44:17;;;;;;;2;1.2;;;;;;;14.74;100;94943.55;;;;
2021/08/08 04:45:17;;;;;;;2;1.2;;;;;;;14.74;100;94943.55;;;;
2021/08/08 04:46:19;;;;;;;2;1.2;;;;;;;14.74;100;94943.55;;;;
2021/08/08 04:47:19;;;;;;;2;1.2;;;;;;;14.74;100;94943.55;;;;
2021/08/08 04:48:20;;;;;;;2;1.2;;;;;;;14.74;100;94943.55;;;;
2021/08/08 04:49:20;;;;;;;2;1.2;;;;;;;14.74;100;94943.55;;;;
2021/08/08 04:50:21;;;;;;;2;1.2;;;;;;;14.74;100;94943.55;;;;
2021/08/08 04:51:22;;;;;;;1.2;1.1;;;;;;;14.82;100;94956.73;;;;
2021/08/08 04:52:23;;;;;;;1.2;1.1;;;;;;;14.82;100;94956.73;;;;
2021/08/08 04:53:23;;;;;;;1.2;1.1;;;;;;;14.82;100;94956.73;;;;
2021/08/08 04:54:24;;;;;;;1.2;1.1;;;;;;;14.82;100;94956.73;;;;
2021/08/08 04:55:24;;;;;;;1.2;1.1;;;;;;;14.82;100;94956.73;;;;
2021/08/08 04:56:25;;;;;;;1.2;1.1;;;;;;;14.82;100;94956.73;;;;
2021/08/08 04:57:26;;;;;;;1.2;1.1;;;;;;;14.82;100;94956.73;;;;
2021/08/08 04:58:26;;;;;;;1.2;1.1;;;;;;;14.82;100;94956.73;;;;
2021/08/08 04:59:27;;;;;;;1.2;1.1;;;;;;;14.82;100;94956.73;;;;
2021/08/08 05:00:27;;;;;;;1.2;1.1;;;;;;;14.82;100;94956.73;;;;
2021/08/08 05:01:29;;;;;;;1.2;1.1;;;;;;;14.82;100;94956.73;;;;
2021/08/08 05:02:29;;;;;;;1.45;1.1;;;;;;;14.94;100;94951.31;;;;
2021/08/08 05:03:30;;;;;;;1.45;1.1;;;;;;;14.94;100;94951.31;;;;
2021/08/08 05:04:30;;;;;;;1.45;1.1;;;;;;;14.94;100;94951.31;;;;
2021/08/08 05:05:31;;;;;;;1.45;1.1;;;;;;;14.94;100;94951.31;;;;
2021/08/08 05:06:31;;;;;;;1.45;1.1;;;;;;;14.94;100;94951.31;;;;
2021/08/08 05:07:32;;;;;;;1.45;1.1;;;;;;;14.94;100;94951.31;;;;
2021/08/08 05:08:36;;;;;;;1.45;1.1;;;;;;;14.94;100;94951.31;;;;
2021/08/08 05:09:37;;;;;;;1.45;1.1;;;;;;;14.94;100;94951.31;;;;
2021/08/08 05:10:37;;;;;;;1.45;1.1;;;;;;;14.94;100;94951.31;;;;
2021/08/08 05:11:38;;;;;;;1.45;1.1;;;;;;;14.94;100;94951.31;;;;
2021/08/08 05:12:38;;;;;;;1.4;1.3;;;;;;;15.15;100;94948.46;;;;
2021/08/08 05:13:39;;;;;;;1.4;1.3;;;;;;;15.15;100;94948.46;;;;
2021/08/08 05:14:40;;;;;;;1.4;1.3;;;;;;;15.15;100;94948.46;;;;
2021/08/08 05:15:40;;;;;;;1.4;1.3;;;;;;;15.15;100;94948.46;;;;
2021/08/08 05:16:40;;;;;;;1.4;1.3;;;;;;;15.15;100;94948.46;;;;
2021/08/08 05:17:41;;;;;;;1.4;1.3;;;;;;;15.15;100;94948.46;;;;
2021/08/08 05:18:42;;;;;;;1.4;1.3;;;;;;;15.15;100;94948.46;;;;
2021/08/08 05:19:42;;;;;;;1.4;1.3;;;;;;;15.15;100;94948.46;;;;
2021/08/08 05:20:43;;;;;;;1.4;1.3;;;;;;;15.15;100;94948.46;;;;
2021/08/08 05:21:43;;;;;;;1.4;1.3;;;;;;;15.15;100;94948.46;;;;
2021/08/08 05:22:44;;;;;;;1.4;1.3;;;;;;;15.15;100;94948.46;;;;
2021/08/08 05:23:45;;;;;;;2.6;1.35;;;;;;;15.42;100;94969.95;;;;
2021/08/08 05:24:45;;;;;;;2.6;1.35;;;;;;;15.42;100;94969.95;;;;
2021/08/08 05:25:46;;;;;;;2.6;1.35;;;;;;;15.42;100;94969.95;;;;
2021/08/08 05:26:46;;;;;;;2.6;1.35;;;;;;;15.42;100;94969.95;;;;
2021/08/08 05:27:47;;;;;;;2.6;1.35;;;;;;;15.42;100;94969.95;;;;
2021/08/08 05:28:47;;;;;;;2.6;1.35;;;;;;;15.42;100;94969.95;;;;
2021/08/08 05:29:48;;;;;;;2.6;1.35;;;;;;;15.42;100;94969.95;;;;
2021/08/08 05:30:48;;;;;;;2.6;1.35;;;;;;;15.42;100;94969.95;;;;
2021/08/08 05:31:49;;;;;;;2.6;1.35;;;;;;;15.42;100;94969.95;;;;
2021/08/08 05:32:49;;;;;;;2.6;1.35;;;;;;;15.42;100;94969.95;;;;
2021/08/08 05:33:50;;;;;;;1.65;1.2;;;;;;;15.74;100;94977.67;;;;
2021/08/08 05:34:51;;;;;;;1.65;1.2;;;;;;;15.74;100;94977.67;;;;
2021/08/08 05:35:52;;;;;;;1.65;1.2;;;;;;;15.74;100;94977.67;;;;
2021/08/08 05:36:53;;;;;;;1.65;1.2;;;;;;;15.74;100;94977.67;;;;
2021/08/08 05:37:53;;;;;;;1.65;1.2;;;;;;;15.74;100;94977.67;;;;
2021/08/08 05:38:54;;;;;;;1.65;1.2;;;;;;;15.74;100;94977.67;;;;
2021/08/08 05:39:54;;;;;;;1.65;1.2;;;;;;;15.74;100;94977.67;;;;
2021/08/08 05:40:54;;;;;;;1.65;1.2;;;;;;;15.74;100;94977.67;;;;
2021/08/08 05:41:55;;;;;;;1.65;1.2;;;;;;;15.74;100;94977.67;;;;
2021/08/08 05:42:55;;;;;;;1.65;1.2;;;;;;;15.74;100;94977.67;;;;
2021/08/08 05:43:56;;;;;;;1.65;1.2;;;;;;;15.74;100;94977.67;;;;
2021/08/08 05:44:56;;;;;;;1.35;1.25;;;;;;;15.99;100;94969.44;;;;
2021/08/08 05:45:57;;;;;;;1.35;1.25;;;;;;;15.99;100;94969.44;;;;
2021/08/08 05:46:57;;;;;;;1.35;1.25;;;;;;;15.99;100;94969.44;;;;
2021/08/08 05:47:58;;;;;;;1.35;1.25;;;;;;;15.99;100;94969.44;;;;
2021/08/08 05:48:58;;;;;;;1.35;1.25;;;;;;;15.99;100;94969.44;;;;
2021/08/08 05:49:59;;;;;;;1.35;1.25;;;;;;;15.99;100;94969.44;;;;
2021/08/08 05:50:59;;;;;;;1.35;1.25;;;;;;;15.99;100;94969.44;;;;
2021/08/08 05:52:01;;;;;;;1.35;1.25;;;;;;;15.99;100;94969.44;;;;
2021/08/08 05:53:02;;;;;;;1.35;1.25;;;;;;;15.99;100;94969.44;;;;
2021/08/08 05:54:03;;;;;;;1.35;1.25;;;;;;;15.99;100;94969.44;;;;
2021/08/08 05:55:03;;;;;;;1.4;1.3;;;;;;;16.4;100;94970.95;;;;
2021/08/08 05:56:05;;;;;;;1.4;1.3;;;;;;;16.4;100;94970.95;;;;
2021/08/08 05:57:06;;;;;;;1.4;1.3;;;;;;;16.4;100;94970.95;;;;
2021/08/08 05:58:06;;;;;;;1.4;1.3;;;;;;;16.4;100;94970.95;;;;
2021/08/08 05:59:07;;;;;;;1.4;1.3;;;;;;;16.4;100;94970.95;;;;
2021/08/08 06:00:08;;;;;;;1.4;1.3;;;;;;;16.4;100;94970.95;;;;
2021/08/08 06:01:09;;;;;;;1.4;1.3;;;;;;;16.4;100;94970.95;;;;
2021/08/08 06:02:09;;;;;;;1.4;1.3;;;;;;;16.4;100;94970.95;;;;
2021/08/08 06:03:10;;;;;;;1.4;1.3;;;;;;;16.4;100;94970.95;;;;
2021/08/08 06:04:11;;;;;;;1.4;1.3;;;;;;;16.4;100;94970.95;;;;
2021/08/08 06:05:12;;;;;;;1.4;1.3;;;;;;;16.4;100;94970.95;;;;
2021/08/08 06:06:12;;;;;;;1.4;1.3;;;;;;;16.4;100;94970.95;;;;
2021/08/08 06:07:13;;;;;;;1.4;1.3;;;;;;;16.4;100;94970.95;;;;
2021/08/08 06:08:13;;;;;;;1.4;1.3;;;;;;;16.4;100;94970.95;;;;
2021/08/08 06:09:14;;;;;;;1.4;1.3;;;;;;;16.4;100;94970.95;;;;
2021/08/08 06:10:14;;;;;;;1.4;1.3;;;;;;;16.4;100;94970.95;;;;
2021/08/08 06:11:15;;;;;;;1.4;1.3;;;;;;;16.4;100;94970.95;;;;
2021/08/08 06:12:15;;;;;;;1.4;1.3;;;;;;;16.4;100;94970.95;;;;
2021/08/08 06:13:16;;;;;;;1.4;1.3;;;;;;;16.4;100;94970.95;;;;
2021/08/08 06:14:17;;;;;;;1.4;1.3;;;;;;;16.4;100;94970.95;;;;
2021/08/08 06:15:17;;;;;;;1.4;1.3;;;;;;;16.4;100;94970.95;;;;
2021/08/08 06:16:18;;;;;;;1.35;1.2;;;;;;;16.94;100;94991.94;;;;
2021/08/08 06:17:18;;;;;;;1.35;1.2;;;;;;;16.94;100;94991.94;;;;
2021/08/08 06:18:19;;;;;;;1.35;1.2;;;;;;;16.94;100;94991.94;;;;
2021/08/08 06:19:19;;;;;;;1.35;1.2;;;;;;;16.94;100;94991.94;;;;
2021/08/08 06:20:20;;;;;;;1.35;1.2;;;;;;;16.94;100;94991.94;;;;
2021/08/08 06:21:21;;;;;;;1.35;1.2;;;;;;;16.94;100;94991.94;;;;
2021/08/08 06:22:21;;;;;;;1.35;1.2;;;;;;;16.94;100;94991.94;;;;